sensor_id;sensor_type;location;lat;lon;timestamp;P1;durP1;ratioP1;P2;durP2;ratioP2
7169;SDS011;3626;42.656;23.312;2022-09-02T00:00:00;19.80;;;13.10;;
7169;SDS011;3626;42.656;23.312;2022-09-02T00:00:11;19.82;;;13.19;;
7169;SDS011;3626;42.656;23.312;2022-09-02T00:00:17;17.67;;;12.90;;
7169;SDS011;3626;42.656;23.312;2022-09-02T00:00:24;17.60;;;13.08;;
7169;SDS011;3626;42.656;23.312;2022-09-02T00:00:30;17.87;;;13.37;;
7169;SDS011;3626;42.656;23.312;2022-09-02T00:00:39;17.88;;;13.48;;
7169;SDS011;3626;42.656;23.312;2022-09-02T00:00:46;18.74;;;13.81;;
7169;SDS011;3626;42.656;23.312;2022-09-02T00:00:55;19.88;;;14.22;;
7169;SDS011;3626;42.656;23.312;2022-09-02T00:01:10;19.32;;;14.48;;
7169;SDS011;3626;42.656;23.312;2022-09-02T00:01:21;19.88;;;14.50;;
7169;SDS011;3626;42.656;23.312;2022-09-02T00:01:30;20.76;;;14.10;;
7169;SDS011;3626;42.656;23.312;2022-09-02T00:01:38;22.95;;;13.80;;
7169;SDS011;3626;42.656;23.312;2022-09-02T00:01:46;23.15;;;13.40;;
7169;SDS011;3626;42.656;23.312;2022-09-02T00:01:52;22.58;;;13.28;;
7169;SDS011;3626;42.656;23.312;2022-09-02T00:01:59;23.37;;;13.27;;
7169;SDS011;3626;42.656;23.312;2022-09-02T00:02:05;23.00;;;13.16;;
7169;SDS011;3626;42.656;23.312;2022-09-02T00:02:11;23.50;;;13.10;;
7169;SDS011;3626;42.656;23.312;2022-09-02T00:02:17;22.90;;;12.98;;
7169;SDS011;3626;42.656;23.312;2022-09-02T00:02:25;22.78;;;12.96;;
7169;SDS011;3626;42.656;23.312;2022-09-02T00:02:31;22.00;;;12.98;;
7169;SDS011;3626;42.656;23.312;2022-09-02T00:02:36;19.90;;;12.95;;
7169;SDS011;3626;42.656;23.312;2022-09-02T00:02:42;20.13;;;13.13;;
7169;SDS011;3626;42.656;23.312;2022-09-02T00:02:48;20.52;;;13.15;;
7169;SDS011;3626;42.656;23.312;2022-09-02T00:02:54;20.67;;;13.20;;
7169;SDS011;3626;42.656;23.312;2022-09-02T00:03:00;20.02;;;13.15;;
7169;SDS011;3626;42.656;23.312;2022-09-02T00:03:06;19.95;;;12.93;;
7169;SDS011;3626;42.656;23.312;2022-09-02T00:03:12;19.77;;;12.98;;
7169;SDS011;3626;42.656;23.312;2022-09-02T00:03:19;19.50;;;13.14;;
7169;SDS011;3626;42.656;23.312;2022-09-02T00:03:25;19.63;;;13.20;;
7169;SDS011;3626;42.656;23.312;2022-09-02T00:03:33;20.00;;;13.42;;
7169;SDS011;3626;42.656;23.312;2022-09-02T00:03:39;20.58;;;13.52;;
7169;SDS011;3626;42.656;23.312;2022-09-02T00:03:46;20.97;;;13.70;;
7169;SDS011;3626;42.656;23.312;2022-09-02T00:03:54;20.80;;;13.60;;
7169;SDS011;3626;42.656;23.312;2022-09-02T00:04:03;20.65;;;13.68;;
7169;SDS011;3626;42.656;23.312;2022-09-02T00:04:12;21.13;;;13.90;;
7169;SDS011;3626;42.656;23.312;2022-09-02T00:04:20;21.67;;;14.10;;
7169;SDS011;3626;42.656;23.312;2022-09-02T00:04:28;21.93;;;14.20;;
7169;SDS011;3626;42.656;23.312;2022-09-02T00:04:33;22.42;;;14.00;;
7169;SDS011;3626;42.656;23.312;2022-09-02T00:04:39;21.37;;;14.10;;
7169;SDS011;3626;42.656;23.312;2022-09-02T00:04:45;20.77;;;14.00;;
7169;SDS011;3626;42.656;23.312;2022-09-02T00:04:51;20.50;;;13.88;;
7169;SDS011;3626;42.656;23.312;2022-09-02T00:04:56;20.52;;;13.80;;
7169;SDS011;3626;42.656;23.312;2022-09-02T00:05:04;20.50;;;13.80;;
7169;SDS011;3626;42.656;23.312;2022-09-02T00:05:10;20.52;;;13.86;;
7169;SDS011;3626;42.656;23.312;2022-09-02T00:05:16;20.75;;;13.82;;
7169;SDS011;3626;42.656;23.312;2022-09-02T00:05:24;21.05;;;13.80;;
7169;SDS011;3626;42.656;23.312;2022-09-02T00:05:30;20.42;;;13.60;;
7169;SDS011;3626;42.656;23.312;2022-09-02T00:05:35;19.90;;;13.30;;
7169;SDS011;3626;42.656;23.312;2022-09-02T00:05:41;20.67;;;13.30;;
7169;SDS011;3626;42.656;23.312;2022-09-02T00:05:47;21.65;;;13.38;;
7169;SDS011;3626;42.656;23.312;2022-09-02T00:05:53;21.60;;;13.60;;
7169;SDS011;3626;42.656;23.312;2022-09-02T00:06:00;21.80;;;13.80;;
7169;SDS011;3626;42.656;23.312;2022-09-02T00:06:07;21.70;;;13.70;;
7169;SDS011;3626;42.656;23.312;2022-09-02T00:06:14;20.33;;;13.40;;
7169;SDS011;3626;42.656;23.312;2022-09-02T00:06:20;20.08;;;13.35;;
7169;SDS011;3626;42.656;23.312;2022-09-02T00:06:26;20.15;;;13.40;;
7169;SDS011;3626;42.656;23.312;2022-09-02T00:06:33;20.02;;;13.50;;
7169;SDS011;3626;42.656;23.312;2022-09-02T00:06:40;19.00;;;13.37;;
7169;SDS011;3626;42.656;23.312;2022-09-02T00:06:48;18.90;;;13.40;;
7169;SDS011;3626;42.656;23.312;2022-09-02T00:06:55;18.65;;;13.27;;
7169;SDS011;3626;42.656;23.312;2022-09-02T00:07:01;19.70;;;13.20;;
7169;SDS011;3626;42.656;23.312;2022-09-02T00:07:07;19.83;;;13.20;;
7169;SDS011;3626;42.656;23.312;2022-09-02T00:07:13;20.20;;;13.33;;
7169;SDS011;3626;42.656;23.312;2022-09-02T00:07:19;20.63;;;13.30;;
7169;SDS011;3626;42.656;23.312;2022-09-02T00:07:25;20.45;;;13.38;;
7169;SDS011;3626;42.656;23.312;2022-09-02T00:07:31;20.80;;;13.48;;
7169;SDS011;3626;42.656;23.312;2022-09-02T00:07:37;20.90;;;13.43;;
7169;SDS011;3626;42.656;23.312;2022-09-02T00:07:42;21.07;;;13.47;;
7169;SDS011;3626;42.656;23.312;2022-09-02T00:07:48;20.25;;;13.25;;
7169;SDS011;3626;42.656;23.312;2022-09-02T00:07:54;21.15;;;13.15;;
7169;SDS011;3626;42.656;23.312;2022-09-02T00:07:59;19.97;;;13.00;;
7169;SDS011;3626;42.656;23.312;2022-09-02T00:08:07;19.60;;;13.10;;
7169;SDS011;3626;42.656;23.312;2022-09-02T00:08:14;18.87;;;13.03;;
7169;SDS011;3626;42.656;23.312;2022-09-02T00:08:19;18.80;;;13.10;;
7169;SDS011;3626;42.656;23.312;2022-09-02T00:08:25;19.20;;;13.13;;
7169;SDS011;3626;42.656;23.312;2022-09-02T00:08:31;19.13;;;13.05;;
7169;SDS011;3626;42.656;23.312;2022-09-02T00:08:37;19.38;;;13.15;;
7169;SDS011;3626;42.656;23.312;2022-09-02T00:08:44;19.20;;;13.37;;
7169;SDS011;3626;42.656;23.312;2022-09-02T00:08:51;18.83;;;13.47;;
7169;SDS011;3626;42.656;23.312;2022-09-02T00:08:58;18.70;;;13.63;;
7169;SDS011;3626;42.656;23.312;2022-09-02T00:09:04;18.50;;;13.43;;
7169;SDS011;3626;42.656;23.312;2022-09-02T00:09:12;19.00;;;13.40;;
7169;SDS011;3626;42.656;23.312;2022-09-02T00:09:20;18.93;;;13.52;;
7169;SDS011;3626;42.656;23.312;2022-09-02T00:09:27;18.40;;;13.70;;
7169;SDS011;3626;42.656;23.312;2022-09-02T00:09:33;17.90;;;13.68;;
7169;SDS011;3626;42.656;23.312;2022-09-02T00:09:41;17.67;;;13.68;;
7169;SDS011;3626;42.656;23.312;2022-09-02T00:09:47;17.50;;;13.63;;
7169;SDS011;3626;42.656;23.312;2022-09-02T00:09:53;18.13;;;13.77;;
7169;SDS011;3626;42.656;23.312;2022-09-02T00:09:58;18.27;;;13.75;;
7169;SDS011;3626;42.656;23.312;2022-09-02T00:10:04;19.73;;;14.02;;
7169;SDS011;3626;42.656;23.312;2022-09-02T00:10:10;19.80;;;14.00;;
7169;SDS011;3626;42.656;23.312;2022-09-02T00:10:16;21.60;;;14.35;;
7169;SDS011;3626;42.656;23.312;2022-09-02T00:10:23;21.90;;;14.30;;
7169;SDS011;3626;42.656;23.312;2022-09-02T00:10:29;22.73;;;14.30;;
7169;SDS011;3626;42.656;23.312;2022-09-02T00:10:36;22.92;;;14.40;;
7169;SDS011;3626;42.656;23.312;2022-09-02T00:10:43;22.60;;;14.27;;
7169;SDS011;3626;42.656;23.312;2022-09-02T00:10:50;22.20;;;14.37;;
7169;SDS011;3626;42.656;23.312;2022-09-02T00:10:56;21.95;;;14.30;;
7169;SDS011;3626;42.656;23.312;2022-09-02T00:11:03;21.66;;;14.08;;
7169;SDS011;3626;42.656;23.312;2022-09-02T00:11:12;21.50;;;14.23;;
7169;SDS011;3626;42.656;23.312;2022-09-02T00:11:21;20.37;;;13.82;;
7169;SDS011;3626;42.656;23.312;2022-09-02T00:11:29;19.93;;;13.50;;
7169;SDS011;3626;42.656;23.312;2022-09-02T00:11:36;19.10;;;13.20;;
7169;SDS011;3626;42.656;23.312;2022-09-02T00:11:44;20.02;;;13.18;;
7169;SDS011;3626;42.656;23.312;2022-09-02T00:11:53;20.43;;;12.80;;
7169;SDS011;3626;42.656;23.312;2022-09-02T00:11:59;20.30;;;12.85;;
7169;SDS011;3626;42.656;23.312;2022-09-02T00:12:05;19.73;;;12.80;;
7169;SDS011;3626;42.656;23.312;2022-09-02T00:12:11;20.68;;;12.60;;
7169;SDS011;3626;42.656;23.312;2022-09-02T00:12:17;20.80;;;12.70;;
7169;SDS011;3626;42.656;23.312;2022-09-02T00:12:23;20.15;;;12.65;;
7169;SDS011;3626;42.656;23.312;2022-09-02T00:12:29;20.90;;;13.00;;
7169;SDS011;3626;42.656;23.312;2022-09-02T00:12:34;21.00;;;13.15;;
7169;SDS011;3626;42.656;23.312;2022-09-02T00:12:40;20.60;;;13.27;;
7169;SDS011;3626;42.656;23.312;2022-09-02T00:12:46;21.55;;;13.35;;
7169;SDS011;3626;42.656;23.312;2022-09-02T00:12:52;21.57;;;13.70;;
7169;SDS011;3626;42.656;23.312;2022-09-02T00:12:57;21.67;;;13.68;;
7169;SDS011;3626;42.656;23.312;2022-09-02T00:13:03;21.80;;;13.68;;
7169;SDS011;3626;42.656;23.312;2022-09-02T00:13:11;22.63;;;14.07;;
7169;SDS011;3626;42.656;23.312;2022-09-02T00:13:19;21.66;;;14.10;;
7169;SDS011;3626;42.656;23.312;2022-09-02T00:13:27;21.52;;;14.07;;
7169;SDS011;3626;42.656;23.312;2022-09-02T00:13:33;21.70;;;14.10;;
7169;SDS011;3626;42.656;23.312;2022-09-02T00:13:41;21.46;;;14.02;;
7169;SDS011;3626;42.656;23.312;2022-09-02T00:13:48;19.86;;;13.98;;
7169;SDS011;3626;42.656;23.312;2022-09-02T00:13:54;19.50;;;13.87;;
7169;SDS011;3626;42.656;23.312;2022-09-02T00:14:02;20.23;;;14.07;;
7169;SDS011;3626;42.656;23.312;2022-09-02T00:14:10;19.00;;;13.90;;
7169;SDS011;3626;42.656;23.312;2022-09-02T00:14:18;18.87;;;13.70;;
7169;SDS011;3626;42.656;23.312;2022-09-02T00:14:34;21.66;;;13.66;;
7169;SDS011;3626;42.656;23.312;2022-09-02T00:14:41;22.10;;;13.60;;
7169;SDS011;3626;42.656;23.312;2022-09-02T00:14:48;23.30;;;13.67;;
7169;SDS011;3626;42.656;23.312;2022-09-02T00:14:54;23.83;;;13.80;;
7169;SDS011;3626;42.656;23.312;2022-09-02T00:14:59;23.80;;;13.70;;
7169;SDS011;3626;42.656;23.312;2022-09-02T00:15:05;23.35;;;13.60;;
7169;SDS011;3626;42.656;23.312;2022-09-02T00:15:12;23.10;;;13.50;;
7169;SDS011;3626;42.656;23.312;2022-09-02T00:15:18;22.92;;;13.50;;
7169;SDS011;3626;42.656;23.312;2022-09-02T00:15:24;19.67;;;13.32;;
7169;SDS011;3626;42.656;23.312;2022-09-02T00:15:30;20.42;;;13.38;;
7169;SDS011;3626;42.656;23.312;2022-09-02T00:15:38;19.63;;;13.50;;
7169;SDS011;3626;42.656;23.312;2022-09-02T00:15:44;19.43;;;13.40;;
7169;SDS011;3626;42.656;23.312;2022-09-02T00:15:51;18.90;;;13.32;;
7169;SDS011;3626;42.656;23.312;2022-09-02T00:15:56;18.58;;;13.25;;
7169;SDS011;3626;42.656;23.312;2022-09-02T00:16:02;19.17;;;13.43;;
7169;SDS011;3626;42.656;23.312;2022-09-02T00:16:09;21.03;;;13.57;;
7169;SDS011;3626;42.656;23.312;2022-09-02T00:16:17;22.43;;;13.75;;
7169;SDS011;3626;42.656;23.312;2022-09-02T00:16:23;24.70;;;14.03;;
7169;SDS011;3626;42.656;23.312;2022-09-02T00:16:29;27.06;;;14.02;;
7169;SDS011;3626;42.656;23.312;2022-09-02T00:16:37;27.97;;;13.73;;
7169;SDS011;3626;42.656;23.312;2022-09-02T00:16:43;28.47;;;13.60;;
7169;SDS011;3626;42.656;23.312;2022-09-02T00:16:55;28.36;;;13.49;;
7169;SDS011;3626;42.656;23.312;2022-09-02T00:17:04;27.83;;;13.43;;
7169;SDS011;3626;42.656;23.312;2022-09-02T00:17:10;26.42;;;13.38;;
7169;SDS011;3626;42.656;23.312;2022-09-02T00:17:16;24.88;;;13.18;;
7169;SDS011;3626;42.656;23.312;2022-09-02T00:17:22;25.40;;;13.20;;
7169;SDS011;3626;42.656;23.312;2022-09-02T00:17:28;22.30;;;13.18;;
7169;SDS011;3626;42.656;23.312;2022-09-02T00:17:34;20.90;;;13.33;;
7169;SDS011;3626;42.656;23.312;2022-09-02T00:17:40;20.60;;;13.63;;
7169;SDS011;3626;42.656;23.312;2022-09-02T00:17:45;19.40;;;13.70;;
7169;SDS011;3626;42.656;23.312;2022-09-02T00:17:51;19.13;;;13.77;;
7169;SDS011;3626;42.656;23.312;2022-09-02T00:17:57;19.53;;;13.97;;
7169;SDS011;3626;42.656;23.312;2022-09-02T00:18:03;18.90;;;13.90;;
7169;SDS011;3626;42.656;23.312;2022-09-02T00:18:10;19.90;;;14.20;;
7169;SDS011;3626;42.656;23.312;2022-09-02T00:18:16;20.00;;;14.00;;
7169;SDS011;3626;42.656;23.312;2022-09-02T00:18:23;19.65;;;14.10;;
7169;SDS011;3626;42.656;23.312;2022-09-02T00:18:30;20.38;;;14.22;;
7169;SDS011;3626;42.656;23.312;2022-09-02T00:18:36;21.80;;;14.20;;
7169;SDS011;3626;42.656;23.312;2022-09-02T00:18:43;22.37;;;13.80;;
7169;SDS011;3626;42.656;23.312;2022-09-02T00:18:49;22.83;;;13.80;;
7169;SDS011;3626;42.656;23.312;2022-09-02T00:18:56;23.00;;;13.60;;
7169;SDS011;3626;42.656;23.312;2022-09-02T00:19:02;22.90;;;13.35;;
7169;SDS011;3626;42.656;23.312;2022-09-02T00:19:08;21.87;;;13.03;;
7169;SDS011;3626;42.656;23.312;2022-09-02T00:19:16;22.87;;;13.30;;
7169;SDS011;3626;42.656;23.312;2022-09-02T00:19:23;22.93;;;13.23;;
7169;SDS011;3626;42.656;23.312;2022-09-02T00:19:30;22.44;;;13.18;;
7169;SDS011;3626;42.656;23.312;2022-09-02T00:19:36;20.80;;;13.07;;
7169;SDS011;3626;42.656;23.312;2022-09-02T00:19:42;20.33;;;13.10;;
7169;SDS011;3626;42.656;23.312;2022-09-02T00:19:48;19.83;;;13.07;;
7169;SDS011;3626;42.656;23.312;2022-09-02T00:19:54;19.75;;;13.50;;
7169;SDS011;3626;42.656;23.312;2022-09-02T00:20:00;20.07;;;13.90;;
7169;SDS011;3626;42.656;23.312;2022-09-02T00:20:07;19.93;;;13.93;;
7169;SDS011;3626;42.656;23.312;2022-09-02T00:20:13;18.87;;;14.07;;
7169;SDS011;3626;42.656;23.312;2022-09-02T00:20:19;18.52;;;13.90;;
7169;SDS011;3626;42.656;23.312;2022-09-02T00:20:25;17.20;;;13.80;;
7169;SDS011;3626;42.656;23.312;2022-09-02T00:20:32;17.77;;;14.00;;
7169;SDS011;3626;42.656;23.312;2022-09-02T00:20:38;18.88;;;14.13;;
7169;SDS011;3626;42.656;23.312;2022-09-02T00:20:45;18.88;;;14.35;;
7169;SDS011;3626;42.656;23.312;2022-09-02T00:20:52;19.20;;;14.33;;
7169;SDS011;3626;42.656;23.312;2022-09-02T00:20:59;18.80;;;14.17;;
7169;SDS011;3626;42.656;23.312;2022-09-02T00:21:05;18.50;;;13.98;;
7169;SDS011;3626;42.656;23.312;2022-09-02T00:21:11;19.08;;;14.15;;
7169;SDS011;3626;42.656;23.312;2022-09-02T00:21:18;19.33;;;14.17;;
7169;SDS011;3626;42.656;23.312;2022-09-02T00:21:24;19.78;;;14.24;;
7169;SDS011;3626;42.656;23.312;2022-09-02T00:21:31;19.70;;;14.10;;
7169;SDS011;3626;42.656;23.312;2022-09-02T00:21:38;18.50;;;13.83;;
7169;SDS011;3626;42.656;23.312;2022-09-02T00:21:44;18.77;;;13.83;;
7169;SDS011;3626;42.656;23.312;2022-09-02T00:21:50;18.75;;;13.48;;
7169;SDS011;3626;42.656;23.312;2022-09-02T00:21:57;18.80;;;13.23;;
7169;SDS011;3626;42.656;23.312;2022-09-02T00:22:04;19.00;;;13.27;;
7169;SDS011;3626;42.656;23.312;2022-09-02T00:22:09;19.33;;;13.23;;
7169;SDS011;3626;42.656;23.312;2022-09-02T00:22:15;19.87;;;13.20;;
7169;SDS011;3626;42.656;23.312;2022-09-02T00:22:22;19.80;;;13.20;;
7169;SDS011;3626;42.656;23.312;2022-09-02T00:22:28;20.55;;;13.35;;
7169;SDS011;3626;42.656;23.312;2022-09-02T00:22:34;21.27;;;13.60;;
7169;SDS011;3626;42.656;23.312;2022-09-02T00:22:40;20.93;;;13.57;;
7169;SDS011;3626;42.656;23.312;2022-09-02T00:22:45;20.95;;;13.48;;
7169;SDS011;3626;42.656;23.312;2022-09-02T00:22:52;22.75;;;13.55;;
7169;SDS011;3626;42.656;23.312;2022-09-02T00:22:58;23.70;;;13.50;;
7169;SDS011;3626;42.656;23.312;2022-09-02T00:23:04;23.73;;;13.53;;
7169;SDS011;3626;42.656;23.312;2022-09-02T00:23:12;22.87;;;13.13;;
7169;SDS011;3626;42.656;23.312;2022-09-02T00:23:18;21.68;;;13.02;;
7169;SDS011;3626;42.656;23.312;2022-09-02T00:23:24;21.92;;;13.23;;
7169;SDS011;3626;42.656;23.312;2022-09-02T00:23:30;20.65;;;13.13;;
7169;SDS011;3626;42.656;23.312;2022-09-02T00:23:36;20.58;;;13.13;;
7169;SDS011;3626;42.656;23.312;2022-09-02T00:23:43;20.95;;;13.15;;
7169;SDS011;3626;42.656;23.312;2022-09-02T00:23:50;19.72;;;13.22;;
7169;SDS011;3626;42.656;23.312;2022-09-02T00:23:57;17.63;;;13.53;;
7169;SDS011;3626;42.656;23.312;2022-09-02T00:24:03;17.80;;;13.47;;
7169;SDS011;3626;42.656;23.312;2022-09-02T00:24:09;18.34;;;13.48;;
7169;SDS011;3626;42.656;23.312;2022-09-02T00:24:16;20.07;;;13.73;;
7169;SDS011;3626;42.656;23.312;2022-09-02T00:24:25;19.76;;;13.70;;
7169;SDS011;3626;42.656;23.312;2022-09-02T00:24:31;19.68;;;13.62;;
7169;SDS011;3626;42.656;23.312;2022-09-02T00:24:37;20.10;;;13.90;;
7169;SDS011;3626;42.656;23.312;2022-09-02T00:24:42;20.58;;;14.15;;
7169;SDS011;3626;42.656;23.312;2022-09-02T00:24:48;21.08;;;14.18;;
7169;SDS011;3626;42.656;23.312;2022-09-02T00:24:54;20.83;;;13.73;;
7169;SDS011;3626;42.656;23.312;2022-09-02T00:24:59;21.30;;;13.80;;
7169;SDS011;3626;42.656;23.312;2022-09-02T00:25:07;20.80;;;13.90;;
7169;SDS011;3626;42.656;23.312;2022-09-02T00:25:14;19.74;;;14.00;;
7169;SDS011;3626;42.656;23.312;2022-09-02T00:25:19;19.03;;;13.87;;
7169;SDS011;3626;42.656;23.312;2022-09-02T00:25:26;20.17;;;14.10;;
7169;SDS011;3626;42.656;23.312;2022-09-02T00:25:31;20.25;;;14.00;;
7169;SDS011;3626;42.656;23.312;2022-09-02T00:25:38;20.38;;;13.98;;
7169;SDS011;3626;42.656;23.312;2022-09-02T00:25:44;19.60;;;13.96;;
7169;SDS011;3626;42.656;23.312;2022-09-02T00:25:50;20.83;;;13.90;;
7169;SDS011;3626;42.656;23.312;2022-09-02T00:25:56;20.58;;;13.90;;
7169;SDS011;3626;42.656;23.312;2022-09-02T00:26:02;20.20;;;13.87;;
7169;SDS011;3626;42.656;23.312;2022-09-02T00:26:08;20.43;;;13.77;;
7169;SDS011;3626;42.656;23.312;2022-09-02T00:26:14;20.77;;;13.80;;
7169;SDS011;3626;42.656;23.312;2022-09-02T00:26:20;21.70;;;13.60;;
7169;SDS011;3626;42.656;23.312;2022-09-02T00:26:28;20.25;;;13.33;;
7169;SDS011;3626;42.656;23.312;2022-09-02T00:26:34;20.00;;;13.30;;
7169;SDS011;3626;42.656;23.312;2022-09-02T00:26:40;20.07;;;13.30;;
7169;SDS011;3626;42.656;23.312;2022-09-02T00:26:46;21.05;;;13.30;;
7169;SDS011;3626;42.656;23.312;2022-09-02T00:26:52;21.70;;;13.52;;
7169;SDS011;3626;42.656;23.312;2022-09-02T00:26:58;22.13;;;13.55;;
7169;SDS011;3626;42.656;23.312;2022-09-02T00:27:04;22.50;;;13.65;;
7169;SDS011;3626;42.656;23.312;2022-09-02T00:27:10;22.52;;;13.63;;
7169;SDS011;3626;42.656;23.312;2022-09-02T00:27:15;22.42;;;13.80;;
7169;SDS011;3626;42.656;23.312;2022-09-02T00:27:21;21.53;;;13.80;;
7169;SDS011;3626;42.656;23.312;2022-09-02T00:27:27;21.50;;;13.85;;
7169;SDS011;3626;42.656;23.312;2022-09-02T00:27:33;21.75;;;13.82;;
7169;SDS011;3626;42.656;23.312;2022-09-02T00:27:38;22.33;;;13.65;;
7169;SDS011;3626;42.656;23.312;2022-09-02T00:27:44;22.75;;;13.85;;
7169;SDS011;3626;42.656;23.312;2022-09-02T00:27:51;20.43;;;13.80;;
7169;SDS011;3626;42.656;23.312;2022-09-02T00:27:57;20.53;;;13.83;;
7169;SDS011;3626;42.656;23.312;2022-09-02T00:28:03;20.15;;;13.93;;
7169;SDS011;3626;42.656;23.312;2022-09-02T00:28:10;19.87;;;14.20;;
7169;SDS011;3626;42.656;23.312;2022-09-02T00:28:17;19.80;;;13.98;;
7169;SDS011;3626;42.656;23.312;2022-09-02T00:28:22;19.60;;;13.85;;
7169;SDS011;3626;42.656;23.312;2022-09-02T00:28:28;19.50;;;13.90;;
7169;SDS011;3626;42.656;23.312;2022-09-02T00:28:34;18.97;;;14.00;;
7169;SDS011;3626;42.656;23.312;2022-09-02T00:28:40;18.15;;;13.82;;
7169;SDS011;3626;42.656;23.312;2022-09-02T00:28:46;17.70;;;13.60;;
7169;SDS011;3626;42.656;23.312;2022-09-02T00:28:52;18.50;;;13.60;;
7169;SDS011;3626;42.656;23.312;2022-09-02T00:28:57;19.90;;;13.77;;
7169;SDS011;3626;42.656;23.312;2022-09-02T00:29:03;22.20;;;13.77;;
7169;SDS011;3626;42.656;23.312;2022-09-02T00:29:11;24.42;;;14.00;;
7169;SDS011;3626;42.656;23.312;2022-09-02T00:29:18;25.15;;;14.18;;
7169;SDS011;3626;42.656;23.312;2022-09-02T00:29:24;25.60;;;14.40;;
7169;SDS011;3626;42.656;23.312;2022-09-02T00:29:30;25.77;;;14.70;;
7169;SDS011;3626;42.656;23.312;2022-09-02T00:29:36;26.13;;;14.77;;
7169;SDS011;3626;42.656;23.312;2022-09-02T00:29:43;27.07;;;15.03;;
7169;SDS011;3626;42.656;23.312;2022-09-02T00:29:49;26.93;;;15.00;;
7169;SDS011;3626;42.656;23.312;2022-09-02T00:29:55;25.38;;;14.82;;
7169;SDS011;3626;42.656;23.312;2022-09-02T00:30:00;24.45;;;14.70;;
7169;SDS011;3626;42.656;23.312;2022-09-02T00:30:07;20.50;;;14.55;;
7169;SDS011;3626;42.656;23.312;2022-09-02T00:30:13;20.30;;;14.55;;
7169;SDS011;3626;42.656;23.312;2022-09-02T00:30:19;19.98;;;14.57;;
7169;SDS011;3626;42.656;23.312;2022-09-02T00:30:25;20.35;;;14.77;;
7169;SDS011;3626;42.656;23.312;2022-09-02T00:30:31;20.27;;;14.57;;
7169;SDS011;3626;42.656;23.312;2022-09-02T00:30:38;20.73;;;14.80;;
7169;SDS011;3626;42.656;23.312;2022-09-02T00:30:44;20.93;;;14.80;;
7169;SDS011;3626;42.656;23.312;2022-09-02T00:30:50;21.27;;;14.93;;
7169;SDS011;3626;42.656;23.312;2022-09-02T00:30:56;21.92;;;15.23;;
7169;SDS011;3626;42.656;23.312;2022-09-02T00:31:02;22.42;;;15.35;;
7169;SDS011;3626;42.656;23.312;2022-09-02T00:31:08;22.63;;;15.40;;
7169;SDS011;3626;42.656;23.312;2022-09-02T00:31:14;22.48;;;15.40;;
7169;SDS011;3626;42.656;23.312;2022-09-02T00:31:20;21.90;;;15.18;;
7169;SDS011;3626;42.656;23.312;2022-09-02T00:31:25;22.00;;;14.83;;
7169;SDS011;3626;42.656;23.312;2022-09-02T00:31:32;21.95;;;14.72;;
7169;SDS011;3626;42.656;23.312;2022-09-02T00:31:40;20.57;;;14.30;;
7169;SDS011;3626;42.656;23.312;2022-09-02T00:31:46;20.40;;;14.10;;
7169;SDS011;3626;42.656;23.312;2022-09-02T00:31:53;20.10;;;13.90;;
7169;SDS011;3626;42.656;23.312;2022-09-02T00:31:59;20.17;;;13.93;;
7169;SDS011;3626;42.656;23.312;2022-09-02T00:32:05;19.08;;;13.63;;
7169;SDS011;3626;42.656;23.312;2022-09-02T00:32:11;18.58;;;13.27;;
7169;SDS011;3626;42.656;23.312;2022-09-02T00:32:16;19.13;;;13.18;;
7169;SDS011;3626;42.656;23.312;2022-09-02T00:32:22;19.30;;;13.30;;
7169;SDS011;3626;42.656;23.312;2022-09-02T00:32:28;19.15;;;13.40;;
7169;SDS011;3626;42.656;23.312;2022-09-02T00:32:34;19.13;;;13.43;;
7169;SDS011;3626;42.656;23.312;2022-09-02T00:32:40;19.33;;;13.55;;
7169;SDS011;3626;42.656;23.312;2022-09-02T00:32:47;18.12;;;13.62;;
7169;SDS011;3626;42.656;23.312;2022-09-02T00:32:52;18.20;;;13.67;;
7169;SDS011;3626;42.656;23.312;2022-09-02T00:32:58;19.57;;;13.50;;
7169;SDS011;3626;42.656;23.312;2022-09-02T00:33:04;20.05;;;13.65;;
7169;SDS011;3626;42.656;23.312;2022-09-02T00:33:11;20.96;;;13.92;;
7169;SDS011;3626;42.656;23.312;2022-09-02T00:33:17;21.33;;;14.03;;
7169;SDS011;3626;42.656;23.312;2022-09-02T00:33:24;22.02;;;14.28;;
7169;SDS011;3626;42.656;23.312;2022-09-02T00:33:30;23.30;;;14.38;;
7169;SDS011;3626;42.656;23.312;2022-09-02T00:33:36;23.63;;;14.52;;
7169;SDS011;3626;42.656;23.312;2022-09-02T00:33:43;23.60;;;14.62;;
7169;SDS011;3626;42.656;23.312;2022-09-02T00:33:48;24.03;;;14.70;;
7169;SDS011;3626;42.656;23.312;2022-09-02T00:33:56;23.63;;;14.60;;
7169;SDS011;3626;42.656;23.312;2022-09-02T00:34:02;22.05;;;14.63;;
7169;SDS011;3626;42.656;23.312;2022-09-02T00:34:09;21.50;;;14.43;;
7169;SDS011;3626;42.656;23.312;2022-09-02T00:34:15;22.13;;;14.23;;
7169;SDS011;3626;42.656;23.312;2022-09-02T00:34:21;21.87;;;14.03;;
7169;SDS011;3626;42.656;23.312;2022-09-02T00:34:27;21.80;;;14.10;;
7169;SDS011;3626;42.656;23.312;2022-09-02T00:34:33;21.20;;;14.10;;
7169;SDS011;3626;42.656;23.312;2022-09-02T00:34:40;23.70;;;14.10;;
7169;SDS011;3626;42.656;23.312;2022-09-02T00:34:46;24.23;;;14.27;;
7169;SDS011;3626;42.656;23.312;2022-09-02T00:34:52;24.60;;;14.40;;
7169;SDS011;3626;42.656;23.312;2022-09-02T00:34:59;25.13;;;14.37;;
7169;SDS011;3626;42.656;23.312;2022-09-02T00:35:06;25.63;;;14.50;;
7169;SDS011;3626;42.656;23.312;2022-09-02T00:35:12;25.33;;;14.70;;
7169;SDS011;3626;42.656;23.312;2022-09-02T00:35:18;24.42;;;14.80;;
7169;SDS011;3626;42.656;23.312;2022-09-02T00:35:24;24.75;;;14.73;;
7169;SDS011;3626;42.656;23.312;2022-09-02T00:35:30;23.88;;;14.50;;
7169;SDS011;3626;42.656;23.312;2022-09-02T00:35:36;22.00;;;14.37;;
7169;SDS011;3626;42.656;23.312;2022-09-02T00:35:42;20.42;;;14.18;;
7169;SDS011;3626;42.656;23.312;2022-09-02T00:35:48;20.05;;;14.18;;
7169;SDS011;3626;42.656;23.312;2022-09-02T00:35:54;19.20;;;14.10;;
7169;SDS011;3626;42.656;23.312;2022-09-02T00:36:04;18.75;;;14.14;;
7169;SDS011;3626;42.656;23.312;2022-09-02T00:36:10;19.37;;;14.20;;
7169;SDS011;3626;42.656;23.312;2022-09-02T00:36:16;20.43;;;14.37;;
7169;SDS011;3626;42.656;23.312;2022-09-02T00:36:22;20.20;;;14.32;;
7169;SDS011;3626;42.656;23.312;2022-09-02T00:36:28;20.40;;;14.35;;
7169;SDS011;3626;42.656;23.312;2022-09-02T00:36:34;20.50;;;14.40;;
7169;SDS011;3626;42.656;23.312;2022-09-02T00:36:40;20.83;;;14.45;;
7169;SDS011;3626;42.656;23.312;2022-09-02T00:36:45;21.08;;;14.43;;
7169;SDS011;3626;42.656;23.312;2022-09-02T00:36:52;21.17;;;14.20;;
7169;SDS011;3626;42.656;23.312;2022-09-02T00:36:58;22.60;;;14.20;;
7169;SDS011;3626;42.656;23.312;2022-09-02T00:37:04;23.80;;;14.40;;
7169;SDS011;3626;42.656;23.312;2022-09-02T00:37:09;24.38;;;14.30;;
7169;SDS011;3626;42.656;23.312;2022-09-02T00:37:17;22.58;;;13.75;;
7169;SDS011;3626;42.656;23.312;2022-09-02T00:37:23;21.37;;;13.73;;
7169;SDS011;3626;42.656;23.312;2022-09-02T00:37:30;21.72;;;13.65;;
7169;SDS011;3626;42.656;23.312;2022-09-02T00:37:36;23.25;;;13.57;;
7169;SDS011;3626;42.656;23.312;2022-09-02T00:37:42;23.10;;;13.38;;
7169;SDS011;3626;42.656;23.312;2022-09-02T00:37:48;22.63;;;13.25;;
7169;SDS011;3626;42.656;23.312;2022-09-02T00:37:54;22.85;;;13.30;;
7169;SDS011;3626;42.656;23.312;2022-09-02T00:37:59;21.73;;;13.30;;
7169;SDS011;3626;42.656;23.312;2022-09-02T00:38:05;20.45;;;13.43;;
7169;SDS011;3626;42.656;23.312;2022-09-02T00:38:13;20.37;;;13.60;;
7169;SDS011;3626;42.656;23.312;2022-09-02T00:38:19;20.80;;;13.80;;
7169;SDS011;3626;42.656;23.312;2022-09-02T00:38:25;20.63;;;13.73;;
7169;SDS011;3626;42.656;23.312;2022-09-02T00:38:31;19.83;;;13.60;;